sensor_id;sensor_type;location;lat;lon;timestamp;temperature;humidity
21061;DHT22;10689;50.836;3.266;2023-04-03T00:07:58;2.80;99.90
21061;DHT22;10689;50.836;3.266;2023-04-03T00:10:38;2.80;99.90
21061;DHT22;10689;50.836;3.266;2023-04-03T00:13:39;2.70;99.90
21061;DHT22;10689;50.836;3.266;2023-04-03T00:23:30;2.80;99.90
21061;DHT22;10689;50.836;3.266;2023-04-03T00:36:16;2.80;99.90
21061;DHT22;10689;50.836;3.266;2023-04-03T00:39:14;2.70;99.90
21061;DHT22;10689;50.836;3.266;2023-04-03T00:42:06;2.60;99.90
21061;DHT22;10689;50.836;3.266;2023-04-03T01:22:28;3.00;99.90
21061;DHT22;10689;50.836;3.266;2023-04-03T01:25:25;3.10;99.90
21061;DHT22;10689;50.836;3.266;2023-04-03T01:42:17;2.80;99.90
21061;DHT22;10689;50.836;3.266;2023-04-03T01:45:31;2.90;99.90
21061;DHT22;10689;50.836;3.266;2023-04-03T01:51:21;3.10;99.90
21061;DHT22;10689;50.836;3.266;2023-04-03T01:54:07;2.90;99.90
21061;DHT22;10689;50.836;3.266;2023-04-03T01:57:06;3.00;99.90
21061;DHT22;10689;50.836;3.266;2023-04-03T02:05:54;3.10;99.90
21061;DHT22;10689;50.836;3.266;2023-04-03T02:08:52;3.00;99.90
21061;DHT22;10689;50.836;3.266;2023-04-03T02:14:38;3.00;99.90
21061;DHT22;10689;50.836;3.266;2023-04-03T02:17:11;2.90;99.90
21061;DHT22;10689;50.836;3.266;2023-04-03T02:20:02;3.00;99.90
21061;DHT22;10689;50.836;3.266;2023-04-03T02:26:25;3.40;99.90
21061;DHT22;10689;50.836;3.266;2023-04-03T02:31:42;3.40;99.90
21061;DHT22;10689;50.836;3.266;2023-04-03T02:37:30;3.40;99.90
21061;DHT22;10689;50.836;3.266;2023-04-03T02:40:29;3.30;99.90
21061;DHT22;10689;50.836;3.266;2023-04-03T02:43:08;3.40;99.90
21061;DHT22;10689;50.836;3.266;2023-04-03T02:52:29;3.40;99.90
21061;DHT22;10689;50.836;3.266;2023-04-03T03:01:29;3.20;99.90
21061;DHT22;10689;50.836;3.266;2023-04-03T03:04:10;3.20;99.90
21061;DHT22;10689;50.836;3.266;2023-04-03T03:06:58;3.30;99.90
21061;DHT22;10689;50.836;3.266;2023-04-03T03:09:40;3.30;99.90
21061;DHT22;10689;50.836;3.266;2023-04-03T03:37:59;3.00;99.90
21061;DHT22;10689;50.836;3.266;2023-04-03T03:40:34;3.00;99.90
21061;DHT22;10689;50.836;3.266;2023-04-03T03:46:33;3.10;99.90
21061;DHT22;10689;50.836;3.266;2023-04-03T03:49:09;3.00;99.90
21061;DHT22;10689;50.836;3.266;2023-04-03T03:52:07;3.10;99.90
21061;DHT22;10689;50.836;3.266;2023-04-03T03:55:04;3.20;99.90
21061;DHT22;10689;50.836;3.266;2023-04-03T03:57:55;3.20;99.90
21061;DHT22;10689;50.836;3.266;2023-04-03T04:01:01;3.20;99.90
21061;DHT22;10689;50.836;3.266;2023-04-03T04:03:52;3.10;99.90
21061;DHT22;10689;50.836;3.266;2023-04-03T04:10:35;3.30;99.90
21061;DHT22;10689;50.836;3.266;2023-04-03T04:13:38;3.20;99.90
21061;DHT22;10689;50.836;3.266;2023-04-03T04:16:30;3.20;99.90
21061;DHT22;10689;50.836;3.266;2023-04-03T04:19:48;3.30;99.90
21061;DHT22;10689;50.836;3.266;2023-04-03T04:25:30;3.30;99.90
21061;DHT22;10689;50.836;3.266;2023-04-03T04:28:42;3.30;99.90
21061;DHT22;10689;50.836;3.266;2023-04-03T04:34:53;3.30;99.90
21061;DHT22;10689;50.836;3.266;2023-04-03T04:38:01;3.20;99.90
21061;DHT22;10689;50.836;3.266;2023-04-03T04:43:52;3.00;99.90
21061;DHT22;10689;50.836;3.266;2023-04-03T04:50:21;3.20;99.90
21061;DHT22;10689;50.836;3.266;2023-04-03T04:53:08;3.30;99.90
21061;DHT22;10689;50.836;3.266;2023-04-03T04:55:48;3.20;99.90
21061;DHT22;10689;50.836;3.266;2023-04-03T04:58:44;3.20;99.90
21061;DHT22;10689;50.836;3.266;2023-04-03T05:01:43;3.20;99.90
21061;DHT22;10689;50.836;3.266;2023-04-03T05:04:11;3.20;99.90
21061;DHT22;10689;50.836;3.266;2023-04-03T05:06:58;3.10;99.90
21061;DHT22;10689;50.836;3.266;2023-04-03T05:09:36;3.10;99.90
21061;DHT22;10689;50.836;3.266;2023-04-03T05:12:11;3.20;99.90
21061;DHT22;10689;50.836;3.266;2023-04-03T05:15:06;3.20;99.90
21061;DHT22;10689;50.836;3.266;2023-04-03T05:20:29;3.20;99.90
21061;DHT22;10689;50.836;3.266;2023-04-03T05:27:03;3.30;99.90
21061;DHT22;10689;50.836;3.266;2023-04-03T05:29:59;3.20;99.90
21061;DHT22;10689;50.836;3.266;2023-04-03T05:32:35;3.20;99.90
21061;DHT22;10689;50.836;3.266;2023-04-03T05:38:42;3.20;99.90
21061;DHT22;10689;50.836;3.266;2023-04-03T05:48:16;3.30;99.90
21061;DHT22;10689;50.836;3.266;2023-04-03T05:51:30;3.40;99.90
21061;DHT22;10689;50.836;3.266;2023-04-03T06:14:46;4.00;99.90
21061;DHT22;10689;50.836;3.266;2023-04-03T06:17:24;4.00;99.90
21061;DHT22;10689;50.836;3.266;2023-04-03T06:19:59;4.10;99.90
21061;DHT22;10689;50.836;3.266;2023-04-03T06:26:09;4.00;99.90
21061;DHT22;10689;50.836;3.266;2023-04-03T06:28:43;4.00;99.90
21061;DHT22;10689;50.836;3.266;2023-04-03T06:31:23;4.10;99.90
21061;DHT22;10689;50.836;3.266;2023-04-03T06:33:58;4.30;99.90
21061;DHT22;10689;50.836;3.266;2023-04-03T06:36:33;4.40;99.90
21061;DHT22;10689;50.836;3.266;2023-04-03T06:46:41;4.50;99.90
21061;DHT22;10689;50.836;3.266;2023-04-03T06:52:44;4.80;99.90
21061;DHT22;10689;50.836;3.266;2023-04-03T06:55:11;4.80;99.90
21061;DHT22;10689;50.836;3.266;2023-04-03T06:58:10;4.90;99.90
21061;DHT22;10689;50.836;3.266;2023-04-03T07:01:12;5.10;99.90
21061;DHT22;10689;50.836;3.266;2023-04-03T07:04:03;5.10;99.90
21061;DHT22;10689;50.836;3.266;2023-04-03T07:07:07;5.20;99.90
21061;DHT22;10689;50.836;3.266;2023-04-03T07:10:12;5.30;99.90
21061;DHT22;10689;50.836;3.266;2023-04-03T07:15:54;5.40;99.90
21061;DHT22;10689;50.836;3.266;2023-04-03T07:18:36;5.50;99.90
21061;DHT22;10689;50.836;3.266;2023-04-03T07:25:42;5.60;99.90
21061;DHT22;10689;50.836;3.266;2023-04-03T07:28:28;5.70;99.90
21061;DHT22;10689;50.836;3.266;2023-04-03T07:31:10;5.80;99.90
21061;DHT22;10689;50.836;3.266;2023-04-03T07:33:49;5.80;99.90
21061;DHT22;10689;50.836;3.266;2023-04-03T07:36:41;5.90;99.90
21061;DHT22;10689;50.836;3.266;2023-04-03T07:45:10;6.30;99.90
21061;DHT22;10689;50.836;3.266;2023-04-03T07:48:00;6.40;99.90
21061;DHT22;10689;50.836;3.266;2023-04-03T07:50:49;6.50;99.90
21061;DHT22;10689;50.836;3.266;2023-04-03T07:53:35;6.60;99.90
21061;DHT22;10689;50.836;3.266;2023-04-03T07:56:01;6.70;99.90
21061;DHT22;10689;50.836;3.266;2023-04-03T07:58:37;6.90;99.90
21061;DHT22;10689;50.836;3.266;2023-04-03T08:04:26;7.20;99.90
21061;DHT22;10689;50.836;3.266;2023-04-03T08:10:08;7.20;99.90
21061;DHT22;10689;50.836;3.266;2023-04-03T08:12:40;7.30;99.90
21061;DHT22;10689;50.836;3.266;2023-04-03T08:18:59;7.50;99.90
21061;DHT22;10689;50.836;3.266;2023-04-03T08:28:19;7.70;99.90
21061;DHT22;10689;50.836;3.266;2023-04-03T08:30:51;7.80;99.90
21061;DHT22;10689;50.836;3.266;2023-04-03T08:33:33;7.90;99.90
21061;DHT22;10689;50.836;3.266;2023-04-03T08:39:45;8.10;99.90
21061;DHT22;10689;50.836;3.266;2023-04-03T08:59:04;8.00;99.90
21061;DHT22;10689;50.836;3.266;2023-04-03T09:01:55;8.00;99.90
21061;DHT22;10689;50.836;3.266;2023-04-03T09:04:42;8.00;99.90
21061;DHT22;10689;50.836;3.266;2023-04-03T09:07:33;8.20;99.90
21061;DHT22;10689;50.836;3.266;2023-04-03T09:10:01;8.30;99.90
21061;DHT22;10689;50.836;3.266;2023-04-03T09:22:33;8.50;99.90
21061;DHT22;10689;50.836;3.266;2023-04-03T09:25:10;8.60;99.90
21061;DHT22;10689;50.836;3.266;2023-04-03T09:27:47;8.60;99.90
21061;DHT22;10689;50.836;3.266;2023-04-03T09:30:24;8.60;99.90
21061;DHT22;10689;50.836;3.266;2023-04-03T09:32:56;8.70;99.90
21061;DHT22;10689;50.836;3.266;2023-04-03T09:41:41;8.70;99.90
21061;DHT22;10689;50.836;3.266;2023-04-03T09:47:28;8.90;99.90
21061;DHT22;10689;50.836;3.266;2023-04-03T09:50:20;9.00;99.90
21061;DHT22;10689;50.836;3.266;2023-04-03T09:52:54;8.90;99.90
21061;DHT22;10689;50.836;3.266;2023-04-03T09:55:43;8.80;99.90
21061;DHT22;10689;50.836;3.266;2023-04-03T09:58:29;8.70;99.90
21061;DHT22;10689;50.836;3.266;2023-04-03T10:01:47;8.80;99.90
21061;DHT22;10689;50.836;3.266;2023-04-03T10:04:49;9.00;99.90
21061;DHT22;10689;50.836;3.266;2023-04-03T10:07:37;9.00;99.90
21061;DHT22;10689;50.836;3.266;2023-04-03T10:10:27;9.00;99.90
21061;DHT22;10689;50.836;3.266;2023-04-03T10:13:09;9.10;99.90
21061;DHT22;10689;50.836;3.266;2023-04-03T10:15:57;9.40;99.90
21061;DHT22;10689;50.836;3.266;2023-04-03T10:19:12;9.40;99.90
21061;DHT22;10689;50.836;3.266;2023-04-03T10:22:44;9.40;99.90
21061;DHT22;10689;50.836;3.266;2023-04-03T10:28:15;9.30;99.90
21061;DHT22;10689;50.836;3.266;2023-04-03T10:34:28;9.50;99.90
21061;DHT22;10689;50.836;3.266;2023-04-03T10:37:29;9.70;99.90
21061;DHT22;10689;50.836;3.266;2023-04-03T11:04:59;10.30;99.90
21061;DHT22;10689;50.836;3.266;2023-04-03T11:11:41;10.50;99.90
21061;DHT22;10689;50.836;3.266;2023-04-03T11:14:48;10.40;99.90
21061;DHT22;10689;50.836;3.266;2023-04-03T11:20:47;10.50;99.90
21061;DHT22;10689;50.836;3.266;2023-04-03T11:27:08;10.80;99.90
21061;DHT22;10689;50.836;3.266;2023-04-03T11:29:55;11.00;99.90
21061;DHT22;10689;50.836;3.266;2023-04-03T11:35:36;11.20;99.90
21061;DHT22;10689;50.836;3.266;2023-04-03T11:38:33;11.20;99.90
21061;DHT22;10689;50.836;3.266;2023-04-03T11:41:11;11.30;99.90
21061;DHT22;10689;50.836;3.266;2023-04-03T11:47:43;11.40;99.90
21061;DHT22;10689;50.836;3.266;2023-04-03T11:49:58;11.50;99.90
21061;DHT22;10689;50.836;3.266;2023-04-03T11:59:15;11.80;99.90
21061;DHT22;10689;50.836;3.266;2023-04-03T12:05:29;11.80;99.90
21061;DHT22;10689;50.836;3.266;2023-04-03T12:11:51;11.90;99.90
21061;DHT22;10689;50.836;3.266;2023-04-03T12:15:25;12.00;99.90
21061;DHT22;10689;50.836;3.266;2023-04-03T12:18:44;12.20;99.90
21061;DHT22;10689;50.836;3.266;2023-04-03T12:22:14;12.10;99.90
21061;DHT22;10689;50.836;3.266;2023-04-03T12:24:55;12.10;99.90
21061;DHT22;10689;50.836;3.266;2023-04-03T12:28:12;12.20;99.90
21061;DHT22;10689;50.836;3.266;2023-04-03T12:34:18;12.50;99.90
21061;DHT22;10689;50.836;3.266;2023-04-03T12:48:59;12.40;99.90
21061;DHT22;10689;50.836;3.266;2023-04-03T12:51:56;12.30;99.90
21061;DHT22;10689;50.836;3.266;2023-04-03T12:55:17;12.50;99.90
21061;DHT22;10689;50.836;3.266;2023-04-03T12:58:22;12.70;99.90
21061;DHT22;10689;50.836;3.266;2023-04-03T13:01:18;12.50;99.90
21061;DHT22;10689;50.836;3.266;2023-04-03T13:04:03;12.80;99.90
21061;DHT22;10689;50.836;3.266;2023-04-03T13:10:25;12.90;99.90
21061;DHT22;10689;50.836;3.266;2023-04-03T13:13:17;12.90;99.90
21061;DHT22;10689;50.836;3.266;2023-04-03T13:26:18;13.30;99.90
21061;DHT22;10689;50.836;3.266;2023-04-03T13:36:39;13.30;99.90
21061;DHT22;10689;50.836;3.266;2023-04-03T13:42:58;12.80;99.90
21061;DHT22;10689;50.836;3.266;2023-04-03T13:52:30;13.30;99.90
21061;DHT22;10689;50.836;3.266;2023-04-03T13:58:33;13.60;99.90
21061;DHT22;10689;50.836;3.266;2023-04-03T14:04:43;13.20;99.90
21061;DHT22;10689;50.836;3.266;2023-04-03T14:07:19;13.30;99.90
21061;DHT22;10689;50.836;3.266;2023-04-03T14:09:47;13.20;99.90
21061;DHT22;10689;50.836;3.266;2023-04-03T14:12:34;13.30;99.90
21061;DHT22;10689;50.836;3.266;2023-04-03T14:15:36;13.70;99.90
21061;DHT22;10689;50.836;3.266;2023-04-03T14:18:28;13.80;99.90
21061;DHT22;10689;50.836;3.266;2023-04-03T14:21:35;13.70;99.90
21061;DHT22;10689;50.836;3.266;2023-04-03T14:24:47;14.00;99.90
21061;DHT22;10689;50.836;3.266;2023-04-03T14:56:29;15.20;99.90
21061;DHT22;10689;50.836;3.266;2023-04-03T14:59:33;15.00;99.90
21061;DHT22;10689;50.836;3.266;2023-04-03T15:04:58;14.90;99.90
21061;DHT22;10689;50.836;3.266;2023-04-03T15:14:32;15.30;99.90
21061;DHT22;10689;50.836;3.266;2023-04-03T15:18:10;15.10;99.90
21061;DHT22;10689;50.836;3.266;2023-04-03T15:20:50;15.40;99.90
21061;DHT22;10689;50.836;3.266;2023-04-03T15:23:25;15.60;99.90
21061;DHT22;10689;50.836;3.266;2023-04-03T15:26:01;15.70;99.90
21061;DHT22;10689;50.836;3.266;2023-04-03T15:28:54;15.70;99.90
21061;DHT22;10689;50.836;3.266;2023-04-03T15:31:42;15.40;99.90
21061;DHT22;10689;50.836;3.266;2023-04-03T15:34:59;15.20;99.90
21061;DHT22;10689;50.836;3.266;2023-04-03T15:38:16;15.00;99.90
21061;DHT22;10689;50.836;3.266;2023-04-03T15:41:20;14.90;99.90
21061;DHT22;10689;50.836;3.266;2023-04-03T15:57:14;13.70;99.90
21061;DHT22;10689;50.836;3.266;2023-04-03T15:59:42;13.50;99.90
21061;DHT22;10689;50.836;3.266;2023-04-03T16:02:28;13.10;99.90
21061;DHT22;10689;50.836;3.266;2023-04-03T16:08:20;12.60;99.90
21061;DHT22;10689;50.836;3.266;2023-04-03T16:20:05;11.80;99.90
21061;DHT22;10689;50.836;3.266;2023-04-03T16:22:35;11.80;99.90
21061;DHT22;10689;50.836;3.266;2023-04-03T16:25:11;11.70;99.90
21061;DHT22;10689;50.836;3.266;2023-04-03T16:27:46;11.50;99.90
21061;DHT22;10689;50.836;3.266;2023-04-03T16:30:22;11.50;99.90
21061;DHT22;10689;50.836;3.266;2023-04-03T16:32:48;11.40;99.90
21061;DHT22;10689;50.836;3.266;2023-04-03T16:35:19;11.30;99.90
21061;DHT22;10689;50.836;3.266;2023-04-03T16:37:46;11.20;99.90
21061;DHT22;10689;50.836;3.266;2023-04-03T16:40:23;11.20;99.90
21061;DHT22;10689;50.836;3.266;2023-04-03T16:42:57;11.20;99.90
21061;DHT22;10689;50.836;3.266;2023-04-03T16:45:32;11.30;99.90
21061;DHT22;10689;50.836;3.266;2023-04-03T16:48:00;11.20;99.90
21061;DHT22;10689;50.836;3.266;2023-04-03T16:50:26;11.20;99.90
21061;DHT22;10689;50.836;3.266;2023-04-03T16:52:56;11.20;99.90
21061;DHT22;10689;50.836;3.266;2023-04-03T16:55:22;11.30;99.90
21061;DHT22;10689;50.836;3.266;2023-04-03T16:57:47;11.20;99.90
21061;DHT22;10689;50.836;3.266;2023-04-03T17:00:21;11.10;99.90
21061;DHT22;10689;50.836;3.266;2023-04-03T17:02:48;11.00;99.90
21061;DHT22;10689;50.836;3.266;2023-04-03T17:05:18;10.80;99.90
21061;DHT22;10689;50.836;3.266;2023-04-03T17:08:10;10.80;99.90
21061;DHT22;10689;50.836;3.266;2023-04-03T17:13:58;10.90;99.90
21061;DHT22;10689;50.836;3.266;2023-04-03T17:19:13;10.70;99.90
21061;DHT22;10689;50.836;3.266;2023-04-03T17:21:42;10.60;99.90
21061;DHT22;10689;50.836;3.266;2023-04-03T17:24:14;10.60;99.90
21061;DHT22;10689;50.836;3.266;2023-04-03T17:29:30;10.60;99.90
21061;DHT22;10689;50.836;3.266;2023-04-03T17:32:07;10.50;99.90
21061;DHT22;10689;50.836;3.266;2023-04-03T17:38:18;10.50;99.90
21061;DHT22;10689;50.836;3.266;2023-04-03T17:40:49;10.40;99.90
21061;DHT22;10689;50.836;3.266;2023-04-03T17:43:28;10.40;99.90
21061;DHT22;10689;50.836;3.266;2023-04-03T17:46:16;10.40;99.90
21061;DHT22;10689;50.836;3.266;2023-04-03T17:51:34;10.30;99.90
21061;DHT22;10689;50.836;3.266;2023-04-03T17:54:26;10.30;99.90
21061;DHT22;10689;50.836;3.266;2023-04-03T17:56:52;10.10;99.90
21061;DHT22;10689;50.836;3.266;2023-04-03T17:59:18;10.00;99.90
21061;DHT22;10689;50.836;3.266;2023-04-03T18:01:45;10.00;99.90
21061;DHT22;10689;50.836;3.266;2023-04-03T18:04:12;10.00;99.90
21061;DHT22;10689;50.836;3.266;2023-04-03T18:06:45;10.10;99.90
21061;DHT22;10689;50.836;3.266;2023-04-03T18:09:16;10.10;99.90
21061;DHT22;10689;50.836;3.266;2023-04-03T18:11:44;9.90;99.90
21061;DHT22;10689;50.836;3.266;2023-04-03T18:28:01;9.50;99.90
21061;DHT22;10689;50.836;3.266;2023-04-03T18:34:54;9.30;99.90
21061;DHT22;10689;50.836;3.266;2023-04-03T18:37:27;9.20;99.90
21061;DHT22;10689;50.836;3.266;2023-04-03T18:43:21;9.20;99.90
21061;DHT22;10689;50.836;3.266;2023-04-03T18:46:11;9.10;99.90
21061;DHT22;10689;50.836;3.266;2023-04-03T18:49:35;9.10;99.90
21061;DHT22;10689;50.836;3.266;2023-04-03T18:55:37;8.90;99.90
21061;DHT22;10689;50.836;3.266;2023-04-03T19:05:11;8.70;99.90
21061;DHT22;10689;50.836;3.266;2023-04-03T19:21:28;8.40;99.90
21061;DHT22;10689;50.836;3.266;2023-04-03T19:30:32;8.30;99.90
21061;DHT22;10689;50.836;3.266;2023-04-03T19:33:07;8.20;99.90
21061;DHT22;10689;50.836;3.266;2023-04-03T19:36:24;8.20;99.90
21061;DHT22;10689;50.836;3.266;2023-04-03T19:42:28;8.10;99.90
21061;DHT22;10689;50.836;3.266;2023-04-03T19:45:16;8.10;99.90
21061;DHT22;10689;50.836;3.266;2023-04-03T19:48:36;8.10;99.90
21061;DHT22;10689;50.836;3.266;2023-04-03T19:58:02;7.90;99.90
21061;DHT22;10689;50.836;3.266;2023-04-03T20:00:31;7.80;99.90
21061;DHT22;10689;50.836;3.266;2023-04-03T20:03:17;7.70;99.90
21061;DHT22;10689;50.836;3.266;2023-04-03T20:06:17;7.70;99.90
21061;DHT22;10689;50.836;3.266;2023-04-03T20:09:06;7.70;99.90
21061;DHT22;10689;50.836;3.266;2023-04-03T20:11:59;7.70;99.90
21061;DHT22;10689;50.836;3.266;2023-04-03T20:14:28;7.60;99.90
21061;DHT22;10689;50.836;3.266;2023-04-03T20:17:23;7.60;99.90
21061;DHT22;10689;50.836;3.266;2023-04-03T20:19:54;7.60;99.90
21061;DHT22;10689;50.836;3.266;2023-04-03T20:25:29;7.50;99.90
21061;DHT22;10689;50.836;3.266;2023-04-03T20:31:23;7.40;99.90
21061;DHT22;10689;50.836;3.266;2023-04-03T20:33:52;7.40;99.90
21061;DHT22;10689;50.836;3.266;2023-04-03T20:36:19;7.30;99.90
21061;DHT22;10689;50.836;3.266;2023-04-03T20:38:46;7.30;99.90
21061;DHT22;10689;50.836;3.266;2023-04-03T20:41:13;7.30;99.90
21061;DHT22;10689;50.836;3.266;2023-04-03T20:43:40;7.30;99.90
21061;DHT22;10689;50.836;3.266;2023-04-03T20:46:07;7.30;99.90
21061;DHT22;10689;50.836;3.266;2023-04-03T20:48:33;7.20;99.90
21061;DHT22;10689;50.836;3.266;2023-04-03T20:51:11;7.20;99.90
21061;DHT22;10689;50.836;3.266;2023-04-03T20:53:37;7.20;99.90
21061;DHT22;10689;50.836;3.266;2023-04-03T20:56:03;7.10;99.90
21061;DHT22;10689;50.836;3.266;2023-04-03T20:58:29;7.00;99.90
21061;DHT22;10689;50.836;3.266;2023-04-03T21:00:58;6.90;99.90
21061;DHT22;10689;50.836;3.266;2023-04-03T21:03:25;7.00;99.90
21061;DHT22;10689;50.836;3.266;2023-04-03T21:20:02;6.80;99.90
21061;DHT22;10689;50.836;3.266;2023-04-03T21:22:28;6.80;99.90
21061;DHT22;10689;50.836;3.266;2023-04-03T21:24:56;6.80;99.90
21061;DHT22;10689;50.836;3.266;2023-04-03T21:27:21;6.80;99.90
21061;DHT22;10689;50.836;3.266;2023-04-03T21:29:47;6.80;99.90
21061;DHT22;10689;50.836;3.266;2023-04-03T21:32:13;6.80;99.90
21061;DHT22;10689;50.836;3.266;2023-04-03T21:34:41;6.70;99.90
21061;DHT22;10689;50.836;3.266;2023-04-03T21:37:07;6.70;99.90
21061;DHT22;10689;50.836;3.266;2023-04-03T21:39:33;6.70;99.90
21061;DHT22;10689;50.836;3.266;2023-04-03T21:41:59;6.60;99.90
21061;DHT22;10689;50.836;3.266;2023-04-03T21:44:25;6.50;99.90
21061;DHT22;10689;50.836;3.266;2023-04-03T21:46:54;6.50;99.90
21061;DHT22;10689;50.836;3.266;2023-04-03T21:49:24;6.50;99.90
21061;DHT22;10689;50.836;3.266;2023-04-03T21:51:49;6.40;99.90
21061;DHT22;10689;50.836;3.266;2023-04-03T21:54:16;6.30;99.90
21061;DHT22;10689;50.836;3.266;2023-04-03T21:56:42;6.30;99.90
21061;DHT22;10689;50.836;3.266;2023-04-03T21:59:08;6.30;99.90
21061;DHT22;10689;50.836;3.266;2023-04-03T22:01:35;6.20;99.90
21061;DHT22;10689;50.836;3.266;2023-04-03T22:04:01;6.20;99.90
21061;DHT22;10689;50.836;3.266;2023-04-03T22:06:27;6.20;99.90
21061;DHT22;10689;50.836;3.266;2023-04-03T22:08:53;6.20;99.90
21061;DHT22;10689;50.836;3.266;2023-04-03T22:11:21;6.20;99.90
21061;DHT22;10689;50.836;3.266;2023-04-03T22:13:50;6.20;99.90
21061;DHT22;10689;50.836;3.266;2023-04-03T22:16:18;6.20;99.90
21061;DHT22;10689;50.836;3.266;2023-04-03T22:18:43;6.20;99.90
21061;DHT22;10689;50.836;3.266;2023-04-03T22:21:09;6.20;99.90
21061;DHT22;10689;50.836;3.266;2023-04-03T22:23:36;6.20;99.90
21061;DHT22;10689;50.836;3.266;2023-04-03T22:26:03;6.20;99.90
21061;DHT22;10689;50.836;3.266;2023-04-03T22:28:31;6.10;99.90
21061;DHT22;10689;50.836;3.266;2023-04-03T22:31:03;6.10;99.90
21061;DHT22;10689;50.836;3.266;2023-04-03T22:33:30;6.00;99.90
21061;DHT22;10689;50.836;3.266;2023-04-03T22:35:56;6.00;99.90
21061;DHT22;10689;50.836;3.266;2023-04-03T22:38:22;5.90;99.90
21061;DHT22;10689;50.836;3.266;2023-04-03T22:41:00;5.90;99.90
21061;DHT22;10689;50.836;3.266;2023-04-03T22:43:27;5.90;99.90
21061;DHT22;10689;50.836;3.266;2023-04-03T22:45:53;5.90;99.90
21061;DHT22;10689;50.836;3.266;2023-04-03T22:48:19;5.80;99.90
21061;DHT22;10689;50.836;3.266;2023-04-03T22:50:46;5.80;99.90
21061;DHT22;10689;50.836;3.266;2023-04-03T22:53:13;5.80;99.90
21061;DHT22;10689;50.836;3.266;2023-04-03T22:55:39;5.70;99.90
21061;DHT22;10689;50.836;3.266;2023-04-03T22:58:05;5.70;99.90
21061;DHT22;10689;50.836;3.266;2023-04-03T23:00:31;5.80;99.90
21061;DHT22;10689;50.836;3.266;2023-04-03T23:02:58;5.80;99.90
21061;DHT22;10689;50.836;3.266;2023-04-03T23:05:24;5.70;99.90
21061;DHT22;10689;50.836;3.266;2023-04-03T23:07:49;5.60;99.90
21061;DHT22;10689;50.836;3.266;2023-04-03T23:10:15;5.60;99.90
21061;DHT22;10689;50.836;3.266;2023-04-03T23:12:42;5.60;99.90
21061;DHT22;10689;50.836;3.266;2023-04-03T23:15:08;5.60;99.90
21061;DHT22;10689;50.836;3.266;2023-04-03T23:17:37;5.50;99.90
21061;DHT22;10689;50.836;3.266;2023-04-03T23:20:04;5.50;99.90
21061;DHT22;10689;50.836;3.266;2023-04-03T23:22:30;5.50;99.90
21061;DHT22;10689;50.836;3.266;2023-04-03T23:24:56;5.50;99.90
21061;DHT22;10689;50.836;3.266;2023-04-03T23:27:22;5.50;99.90
21061;DHT22;10689;50.836;3.266;2023-04-03T23:29:48;5.50;99.90
21061;DHT22;10689;50.836;3.266;2023-04-03T23:32:14;5.40;99.90
21061;DHT22;10689;50.836;3.266;2023-04-03T23:34:40;5.40;99.90
21061;DHT22;10689;50.836;3.266;2023-04-03T23:37:09;5.40;99.90
21061;DHT22;10689;50.836;3.266;2023-04-03T23:39:36;5.30;99.90
21061;DHT22;10689;50.836;3.266;2023-04-03T23:42:01;5.40;99.90
21061;DHT22;10689;50.836;3.266;2023-04-03T23:44:28;5.40;99.90
21061;DHT22;10689;50.836;3.266;2023-04-03T23:46:54;5.30;99.90
21061;DHT22;10689;50.836;3.266;2023-04-03T23:49:21;5.20;99.90
21061;DHT22;10689;50.836;3.266;2023-04-03T23:51:47;5.30;99.90
21061;DHT22;10689;50.836;3.266;2023-04-03T23:54:13;5.30;99.90
21061;DHT22;10689;50.836;3.266;2023-04-03T23:56:42;5.20;99.90
21061;DHT22;10689;50.836;3.266;2023-04-03T23:59:08;5.30;99.90
